Time;durP1;ratioP1;P1;durP2;ratioP2;P2;SDS_P1;SDS_P2;PMS_P1;PMS_P2;Temp;Humidity;BMP_temperature;BMP_pressure;BME280_temperature;BME280_humidity;BME280_pressure;Samples;Min_cycle;Max_cycle;Signal;HPM_P1;HPM_P2
2023/05/26 00:00:09;;;;;;;18.33;9.03;;;11.10;99.90;;;;;;5034112;28;20215;-64
2023/05/26 00:02:39;;;;;;;20.40;9.60;;;11.10;99.90;;;;;;5034742;28;20175;-64
2023/05/26 00:05:06;;;;;;;17.13;9.60;;;11.00;99.90;;;;;;5034368;28;20263;-64
2023/05/26 00:07:32;;;;;;;21.50;9.43;;;11.00;99.90;;;;;;5034797;28;20176;-64
2023/05/26 00:09:58;;;;;;;13.17;9.00;;;10.90;99.90;;;;;;5033903;28;20248;-64
2023/05/26 00:12:24;;;;;;;19.77;9.90;;;10.90;99.90;;;;;;5034292;28;20203;-64
2023/05/26 00:14:49;;;;;;;16.30;9.37;;;10.90;99.90;;;;;;5034022;28;20176;-64
2023/05/26 00:17:18;;;;;;;15.73;10.20;;;10.90;99.90;;;;;;5034335;28;20187;-64
2023/05/26 00:19:44;;;;;;;14.30;9.77;;;10.80;99.90;;;;;;5033880;28;20265;-64
2023/05/26 00:22:11;;;;;;;15.87;9.67;;;10.80;99.90;;;;;;5034073;28;20203;-64
2023/05/26 00:24:37;;;;;;;19.20;9.93;;;10.80;99.90;;;;;;5034170;28;20163;-64
2023/05/26 00:27:02;;;;;;;20.50;10.13;;;10.80;99.90;;;;;;5033947;28;20270;-64
2023/05/26 00:29:29;;;;;;;17.37;9.57;;;10.70;99.90;;;;;;5033851;28;20196;-64
2023/05/26 00:31:55;;;;;;;15.83;10.17;;;10.70;99.90;;;;;;5033708;28;20222;-64
2023/05/26 00:34:21;;;;;;;13.03;9.70;;;10.70;99.90;;;;;;5034218;28;20199;-64
2023/05/26 00:36:46;;;;;;;18.17;11.10;;;10.60;99.90;;;;;;5034183;28;20218;-64
2023/05/26 00:39:12;;;;;;;16.77;10.30;;;10.60;99.90;;;;;;5033564;28;20692;-64
2023/05/26 00:41:38;;;;;;;16.23;11.07;;;10.60;99.90;;;;;;5033740;28;20171;-64
2023/05/26 00:44:03;;;;;;;21.50;11.70;;;10.60;99.90;;;;;;5031087;28;20211;-65
2023/05/26 00:46:30;;;;;;;16.43;11.07;;;10.60;99.90;;;;;;5033922;28;20267;-64
2023/05/26 00:48:56;;;;;;;34.37;10.93;;;10.50;99.90;;;;;;5033366;28;20183;-64
2023/05/26 00:51:22;;;;;;;15.97;10.17;;;10.50;99.90;;;;;;5033612;28;20174;-64
2023/05/26 00:53:48;;;;;;;11.37;9.27;;;10.40;99.90;;;;;;5033411;28;20186;-64
2023/05/26 00:56:18;;;;;;;19.30;10.90;;;10.50;99.90;;;;;;5033960;28;20642;-64
2023/05/26 00:58:45;;;;;;;26.97;9.93;;;10.40;99.90;;;;;;5033310;28;20186;-64
2023/05/26 01:01:12;;;;;;;16.87;10.57;;;10.40;99.90;;;;;;5033291;28;20196;-64
2023/05/26 01:03:38;;;;;;;23.53;10.60;;;10.40;99.90;;;;;;5033170;28;20257;-64
2023/05/26 01:06:04;;;;;;;22.57;10.73;;;10.40;99.90;;;;;;5033610;28;20183;-65
2023/05/26 01:08:30;;;;;;;26.67;10.77;;;10.40;99.90;;;;;;5031909;28;20199;-64
2023/05/26 01:11:02;;;;;;;18.97;10.33;;;10.40;99.90;;;;;;5032723;28;20207;-64
2023/05/26 01:13:39;;;;;;;20.77;11.10;;;10.40;99.90;;;;;;5032088;28;20233;-64
2023/05/26 01:16:11;;;;;;;20.30;10.00;;;10.30;99.90;;;;;;5033089;28;20509;-64
2023/05/26 01:18:45;;;;;;;19.93;9.57;;;10.30;99.90;;;;;;5033255;28;20171;-64
2023/05/26 01:21:12;;;;;;;11.47;10.37;;;10.20;99.90;;;;;;5032656;28;20202;-64
2023/05/26 01:24:07;;;;;;;12.43;9.80;;;10.20;99.90;;;;;;5033223;28;20190;-64
2023/05/26 01:26:42;;;;;;;20.13;11.03;;;10.20;99.90;;;;;;5033138;28;20665;-63
2023/05/26 01:29:14;;;;;;;21.30;10.80;;;10.20;99.90;;;;;;5032652;28;20591;-63
2023/05/26 01:31:40;;;;;;;22.57;11.53;;;10.10;99.90;;;;;;5013126;28;20176;-63
2023/05/26 01:34:06;;;;;;;19.23;11.50;;;10.10;99.90;;;;;;5026919;28;20182;-64
2023/05/26 01:36:32;;;;;;;22.37;10.13;;;10.00;99.90;;;;;;5033027;28;20195;-64
2023/05/26 01:38:59;;;;;;;17.47;9.63;;;9.90;99.90;;;;;;5032467;28;20214;-64
2023/05/26 01:41:42;;;;;;;20.27;9.33;;;9.90;99.90;;;;;;5032471;28;20195;-64
2023/05/26 01:44:48;;;;;;;19.63;9.33;;;9.90;99.90;;;;;;5032452;28;20234;-64
2023/05/26 01:47:14;;;;;;;17.37;8.73;;;9.90;99.90;;;;;;5031393;28;20202;-64
2023/05/26 01:49:45;;;;;;;17.03;8.87;;;9.90;99.90;;;;;;5032114;28;20202;-64
2023/05/26 01:52:12;;;;;;;23.27;9.20;;;9.80;99.90;;;;;;5032291;28;20622;-64
2023/05/26 01:54:46;;;;;;;19.83;9.43;;;9.80;99.90;;;;;;5031965;28;20199;-64
2023/05/26 01:57:13;;;;;;;22.43;10.03;;;9.80;99.90;;;;;;5032159;28;20164;-64
2023/05/26 01:59:39;;;;;;;30.47;10.17;;;9.80;99.90;;;;;;5031854;28;20215;-64
2023/05/26 02:02:05;;;;;;;27.70;10.27;;;9.70;99.90;;;;;;5032164;28;20511;-64
2023/05/26 02:04:30;;;;;;;24.03;9.33;;;9.70;99.90;;;;;;5032184;28;20190;-66
2023/05/26 02:06:57;;;;;;;23.07;9.67;;;9.70;99.90;;;;;;5032181;28;20185;-64
2023/05/26 02:09:23;;;;;;;19.93;8.97;;;9.60;99.90;;;;;;5031898;28;20262;-64
2023/05/26 02:11:48;;;;;;;22.40;9.20;;;9.60;99.90;;;;;;5032438;28;20214;-64
2023/05/26 02:14:14;;;;;;;23.23;9.40;;;9.60;99.90;;;;;;5032015;28;20259;-64
2023/05/26 02:16:40;;;;;;;24.90;10.37;;;9.70;99.90;;;;;;5032008;28;20670;-64
2023/05/26 02:19:07;;;;;;;22.50;9.87;;;9.60;99.90;;;;;;5031672;28;20176;-64
2023/05/26 02:21:33;;;;;;;10.60;8.33;;;9.60;99.90;;;;;;5031924;28;20163;-64
2023/05/26 02:23:59;;;;;;;30.33;10.27;;;9.50;99.90;;;;;;5031442;28;20190;-64
2023/05/26 02:26:24;;;;;;;20.60;9.70;;;9.60;99.90;;;;;;5031969;28;20182;-64
2023/05/26 02:28:55;;;;;;;19.80;9.20;;;9.50;99.90;;;;;;5031534;28;20553;-64
2023/05/26 02:31:21;;;;;;;16.97;9.20;;;9.50;99.90;;;;;;5031390;28;20175;-64
2023/05/26 02:33:46;;;;;;;34.77;9.37;;;9.50;99.90;;;;;;5031611;28;20198;-64
2023/05/26 02:36:13;;;;;;;16.07;8.67;;;9.50;99.90;;;;;;5032697;28;20207;-71
2023/05/26 02:38:39;;;;;;;21.10;9.03;;;9.50;99.90;;;;;;5033107;28;20168;-70
2023/05/26 02:41:05;;;;;;;23.93;9.63;;;9.50;99.90;;;;;;5032780;28;20206;-71
2023/05/26 02:43:31;;;;;;;18.30;8.90;;;9.50;99.90;;;;;;5033399;28;20254;-72
2023/05/26 02:45:57;;;;;;;22.50;9.60;;;9.40;99.90;;;;;;5032454;28;20758;-69
2023/05/26 02:48:22;;;;;;;19.03;10.63;;;9.30;99.90;;;;;;5032867;28;20675;-68
2023/05/26 02:50:48;;;;;;;26.30;10.03;;;9.30;99.90;;;;;;5032183;28;20215;-70
2023/05/26 02:53:15;;;;;;;28.27;9.80;;;9.30;99.90;;;;;;5032619;28;20275;-68
2023/05/26 02:55:41;;;;;;;26.03;9.63;;;9.30;99.90;;;;;;5032776;28;20179;-67
2023/05/26 02:58:06;;;;;;;21.17;9.50;;;9.30;99.90;;;;;;5012862;28;20211;-70
2023/05/26 03:00:32;;;;;;;17.50;9.30;;;9.30;99.90;;;;;;5012734;28;20215;-69
2023/05/26 03:02:58;;;;;;;26.87;9.87;;;9.20;99.90;;;;;;5032210;28;20187;-70
2023/05/26 03:05:23;;;;;;;17.90;9.80;;;9.20;99.90;;;;;;5032498;28;20180;-67
2023/05/26 03:07:49;;;;;;;20.90;9.87;;;9.20;99.90;;;;;;5036386;28;20179;-66
2023/05/26 03:10:15;;;;;;;20.30;9.57;;;9.10;99.90;;;;;;5036305;28;20214;-67
2023/05/26 03:12:40;;;;;;;20.23;8.93;;;9.10;99.90;;;;;;5036015;28;20219;-68
2023/05/26 03:15:07;;;;;;;16.50;9.30;;;9.10;99.90;;;;;;5037216;28;20179;-67
2023/05/26 03:17:32;;;;;;;16.87;9.17;;;9.00;99.90;;;;;;5036465;28;20175;-67
2023/05/26 03:19:58;;;;;;;16.70;9.93;;;9.00;99.90;;;;;;5035241;28;20206;-69
2023/05/26 03:22:24;;;;;;;23.73;8.77;;;8.90;99.90;;;;;;5036511;28;20183;-67
2023/05/26 03:24:49;;;;;;;26.13;9.27;;;8.90;99.90;;;;;;5036697;28;20607;-70
2023/05/26 03:27:17;;;;;;;16.20;8.83;;;8.90;99.90;;;;;;5037132;28;20539;-67
2023/05/26 03:29:43;;;;;;;21.07;8.80;;;8.90;99.90;;;;;;5036081;28;20546;-67
2023/05/26 03:32:08;;;;;;;16.70;8.53;;;8.80;99.90;;;;;;5036750;28;20282;-67
2023/05/26 03:34:39;;;;;;;16.50;8.93;;;8.80;99.90;;;;;;5036155;28;20175;-68
2023/05/26 03:37:05;;;;;;;20.03;9.10;;;8.80;99.90;;;;;;5036622;28;20206;-67
2023/05/26 03:39:31;;;;;;;18.90;8.83;;;8.80;99.90;;;;;;5035674;28;20681;-68
2023/05/26 03:41:57;;;;;;;18.80;9.23;;;8.80;99.90;;;;;;5034738;28;20211;-69
2023/05/26 03:44:23;;;;;;;23.40;8.63;;;8.80;99.90;;;;;;5036228;28;20253;-70
2023/05/26 03:46:49;;;;;;;23.57;8.43;;;8.70;99.90;;;;;;5035109;28;20179;-69
2023/05/26 03:49:14;;;;;;;14.00;9.03;;;8.80;99.90;;;;;;5035896;28;20568;-71
2023/05/26 03:51:40;;;;;;;17.97;9.00;;;8.80;99.90;;;;;;5036241;28;20172;-67
2023/05/26 03:54:06;;;;;;;15.33;8.90;;;8.80;99.90;;;;;;5034547;28;20190;-68
2023/05/26 03:56:32;;;;;;;33.70;9.93;;;8.80;99.90;;;;;;5033434;28;20176;-66
2023/05/26 03:58:57;;;;;;;23.20;9.47;;;8.80;99.90;;;;;;5034157;28;20249;-65
2023/05/26 04:01:25;;;;;;;22.87;10.23;;;8.80;99.90;;;;;;5034385;28;20168;-66
2023/05/26 04:03:51;;;;;;;23.70;9.60;;;8.90;99.90;;;;;;5034260;28;20182;-66
2023/05/26 04:06:16;;;;;;;27.60;10.57;;;8.90;99.90;;;;;;5034553;28;20259;-65
2023/05/26 04:08:42;;;;;;;24.17;9.13;;;8.90;99.90;;;;;;5033907;28;20199;-66
2023/05/26 04:11:08;;;;;;;26.60;9.77;;;8.90;99.90;;;;;;5034032;28;20192;-66
2023/05/26 04:13:40;;;;;;;23.60;9.40;;;9.00;99.90;;;;;;5034165;28;20294;-66
2023/05/26 04:16:06;;;;;;;26.20;10.27;;;9.00;99.90;;;;;;5034422;28;20195;-65
2023/05/26 04:18:33;;;;;;;32.00;10.63;;;9.00;99.90;;;;;;5033657;28;20172;-66
2023/05/26 04:20:59;;;;;;;20.70;9.10;;;9.00;99.90;;;;;;5033912;28;20194;-66
2023/05/26 04:23:25;;;;;;;18.27;9.30;;;9.00;99.90;;;;;;5033957;28;20175;-64
2023/05/26 04:25:50;;;;;;;23.40;10.37;;;9.10;99.90;;;;;;5033016;28;20179;-64
2023/05/26 04:28:16;;;;;;;19.97;9.13;;;9.10;99.90;;;;;;5033789;28;20180;-64
2023/05/26 04:30:42;;;;;;;28.80;9.67;;;9.10;99.90;;;;;;5033551;28;20250;-66
2023/05/26 04:33:09;;;;;;;21.27;9.90;;;9.20;99.90;;;;;;5032655;28;20202;-66
2023/05/26 04:35:35;;;;;;;23.10;9.60;;;9.20;99.90;;;;;;5034044;28;20176;-66
2023/05/26 04:38:04;;;;;;;29.47;10.17;;;9.30;99.90;;;;;;5033612;28;20522;-66
2023/05/26 04:40:32;;;;;;;18.83;9.10;;;9.40;99.90;;;;;;5033621;28;20508;-66
2023/05/26 04:42:59;;;;;;;23.13;10.17;;;9.40;99.90;;;;;;5033560;28;20183;-65
2023/05/26 04:45:25;;;;;;;28.00;9.90;;;9.50;99.90;;;;;;5034067;28;20176;-66
2023/05/26 04:47:50;;;;;;;21.57;10.23;;;9.50;99.90;;;;;;5033326;28;20186;-66
2023/05/26 04:50:16;;;;;;;21.57;10.23;;;9.60;99.90;;;;;;5033340;28;20195;-66
2023/05/26 04:52:42;;;;;;;19.60;10.50;;;9.70;99.90;;;;;;5033147;28;20199;-66
2023/05/26 04:55:08;;;;;;;18.90;9.50;;;9.80;99.90;;;;;;5033756;28;20183;-66
2023/05/26 04:57:34;;;;;;;26.27;11.23;;;10.00;99.90;;;;;;5033359;28;20171;-66
2023/05/26 05:00:00;;;;;;;18.07;11.53;;;10.10;99.90;;;;;;5032773;28;20624;-64
2023/05/26 05:02:26;;;;;;;25.37;11.27;;;10.20;99.90;;;;;;5033487;28;20178;-64
2023/05/26 05:04:52;;;;;;;27.77;10.87;;;10.40;99.90;;;;;;5033137;28;20179;-63
2023/05/26 05:07:18;;;;;;;17.67;10.00;;;10.50;99.90;;;;;;5033266;28;20179;-64
2023/05/26 05:09:44;;;;;;;18.30;10.67;;;10.60;99.90;;;;;;5032414;28;20218;-66
2023/05/26 05:12:09;;;;;;;27.40;10.67;;;10.80;99.90;;;;;;5033278;28;20685;-64
2023/05/26 05:14:35;;;;;;;19.03;11.17;;;10.80;99.90;;;;;;5032947;28;20178;-64
2023/05/26 05:17:00;;;;;;;28.00;12.13;;;10.90;99.90;;;;;;5033373;28;20178;-65
2023/05/26 05:19:26;;;;;;;20.63;10.60;;;11.00;99.90;;;;;;5032629;28;20638;-66
2023/05/26 05:21:52;;;;;;;15.93;11.67;;;11.10;99.90;;;;;;5032913;28;20205;-64
2023/05/26 05:24:18;;;;;;;23.97;11.77;;;11.10;99.90;;;;;;5031813;28;20171;-66
2023/05/26 05:26:43;;;;;;;26.30;12.17;;;11.20;99.90;;;;;;5032929;28;20176;-64
2023/05/26 05:29:09;;;;;;;21.63;10.83;;;11.30;99.90;;;;;;5031583;28;20175;-64
2023/05/26 05:31:34;;;;;;;22.67;11.40;;;11.50;99.90;;;;;;5032814;28;20175;-65
2023/05/26 05:34:00;;;;;;;21.23;11.87;;;11.60;99.90;;;;;;5032675;28;20172;-64
2023/05/26 05:36:26;;;;;;;23.23;13.07;;;11.70;99.90;;;;;;5031565;28;20259;-64
2023/05/26 05:38:51;;;;;;;23.13;11.97;;;11.60;99.90;;;;;;5032631;28;20175;-64
2023/05/26 05:41:18;;;;;;;19.50;11.77;;;11.60;99.90;;;;;;5032191;28;20578;-65
2023/05/26 05:43:44;;;;;;;23.97;12.33;;;11.90;99.90;;;;;;5032394;28;20183;-64
2023/05/26 05:46:10;;;;;;;26.97;11.73;;;12.00;99.90;;;;;;5032509;28;20176;-66
2023/05/26 05:48:36;;;;;;;21.93;12.90;;;12.10;99.90;;;;;;5032697;28;20562;-64
2023/05/26 05:51:02;;;;;;;27.07;14.47;;;12.30;99.90;;;;;;5031317;28;20187;-64
2023/05/26 05:53:27;;;;;;;20.17;15.10;;;12.60;99.90;;;;;;5031893;28;20286;-64
2023/05/26 05:55:53;;;;;;;26.13;13.53;;;12.70;99.90;;;;;;5032395;28;20176;-65
2023/05/26 05:58:19;;;;;;;26.03;13.93;;;12.70;99.90;;;;;;5032191;28;20179;-64
2023/05/26 06:00:45;;;;;;;22.07;13.70;;;13.00;99.90;;;;;;5032014;28;20183;-64
2023/05/26 06:03:10;;;;;;;24.47;14.40;;;13.20;99.90;;;;;;5032257;28;20179;-64
2023/05/26 06:05:36;;;;;;;28.37;12.47;;;13.30;99.90;;;;;;5032393;28;20175;-65
2023/05/26 06:08:01;;;;;;;22.93;12.80;;;13.50;99.90;;;;;;5032476;28;20664;-64
2023/05/26 06:10:27;;;;;;;25.10;13.13;;;13.70;99.90;;;;;;5021112;28;20676;-65
2023/05/26 06:12:52;;;;;;;19.27;12.77;;;13.90;99.90;;;;;;5031822;28;20316;-65
2023/05/26 06:15:18;;;;;;;29.23;13.97;;;14.10;99.90;;;;;;5031876;28;20168;-65
2023/05/26 06:17:44;;;;;;;26.40;12.73;;;14.30;99.90;;;;;;5032130;28;20171;-65
2023/05/26 06:20:10;;;;;;;26.83;15.47;;;14.50;99.90;;;;;;5031439;28;20673;-65
2023/05/26 06:22:37;;;;;;;25.97;14.20;;;14.60;99.90;;;;;;5031847;28;20279;-64
2023/05/26 06:25:04;;;;;;;24.73;13.53;;;14.80;99.90;;;;;;5031366;28;20175;-64
2023/05/26 06:27:30;;;;;;;22.50;14.33;;;15.00;99.90;;;;;;5030831;28;20223;-64
2023/05/26 06:29:56;;;;;;;23.27;13.07;;;15.20;99.90;;;;;;5031613;28;20238;-65
2023/05/26 06:32:21;;;;;;;21.67;12.77;;;15.60;99.90;;;;;;5031730;28;20234;-66
2023/05/26 06:34:47;;;;;;;26.20;12.10;;;16.00;99.90;;;;;;5031773;28;20183;-65
2023/05/26 06:37:13;;;;;;;20.43;12.50;;;16.30;99.90;;;;;;5031579;28;20184;-66
2023/05/26 06:39:39;;;;;;;19.23;13.20;;;16.50;99.90;;;;;;5031160;28;20199;-65
2023/05/26 06:42:05;;;;;;;23.13;13.70;;;16.50;99.90;;;;;;5031829;28;20262;-65
2023/05/26 06:44:32;;;;;;;27.90;13.87;;;16.60;99.90;;;;;;5031553;28;20255;-65
2023/05/26 06:46:58;;;;;;;21.67;13.27;;;16.80;99.90;;;;;;5031456;28;20306;-65
2023/05/26 06:49:24;;;;;;;25.50;13.67;;;16.90;99.90;;;;;;5031199;28;20278;-65
2023/05/26 06:51:49;;;;;;;25.10;13.37;;;16.80;99.90;;;;;;5030084;28;20233;-66
2023/05/26 06:54:15;;;;;;;22.50;13.40;;;16.70;99.90;;;;;;5031294;28;20289;-65
2023/05/26 06:56:41;;;;;;;24.87;13.47;;;16.70;99.90;;;;;;5031446;28;20598;-66
2023/05/26 06:59:07;;;;;;;25.30;13.23;;;16.60;99.90;;;;;;5030955;28;20653;-65
2023/05/26 07:01:32;;;;;;;23.00;13.40;;;16.60;99.90;;;;;;5031402;28;20539;-65
2023/05/26 07:03:58;;;;;;;24.53;13.73;;;16.70;99.90;;;;;;5031186;28;20572;-65
2023/05/26 07:06:24;;;;;;;21.93;12.67;;;16.80;99.90;;;;;;5031753;28;20175;-65
2023/05/26 07:08:49;;;;;;;29.87;13.03;;;16.50;99.90;;;;;;5031169;28;20203;-66
2023/05/26 07:11:15;;;;;;;21.50;11.57;;;16.70;99.90;;;;;;5015670;28;20200;-65
2023/05/26 07:13:40;;;;;;;21.00;12.47;;;17.10;99.90;;;;;;5014151;28;20199;-66
2023/05/26 07:16:07;;;;;;;20.03;11.87;;;17.50;99.90;;;;;;5031179;28;20179;-66
2023/05/26 07:18:33;;;;;;;22.33;12.47;;;17.50;99.90;;;;;;5030815;28;20176;-66
2023/05/26 07:20:58;;;;;;;23.23;12.23;;;17.70;99.90;;;;;;5030584;28;20691;-66
2023/05/26 07:23:24;;;;;;;22.83;12.03;;;17.60;99.90;;;;;;5031254;28;20172;-66
2023/05/26 07:25:50;;;;;;;20.93;11.57;;;17.40;99.90;;;;;;5030564;28;20186;-66
2023/05/26 07:28:15;;;;;;;21.33;11.63;;;17.30;99.90;;;;;;5031367;28;20495;-65
2023/05/26 07:30:41;;;;;;;17.93;10.70;;;17.50;99.90;;;;;;5030524;28;20652;-65
2023/05/26 07:33:06;;;;;;;25.87;11.60;;;17.10;99.90;;;;;;5030889;28;20210;-66
2023/05/26 07:35:32;;;;;;;22.43;13.20;;;16.80;99.90;;;;;;5031158;28;20175;-66
2023/05/26 07:37:58;;;;;;;21.00;10.83;;;16.70;99.90;;;;;;5030919;28;20180;-65
2023/05/26 07:40:24;;;;;;;19.17;10.90;;;17.20;99.90;;;;;;5030802;28;20253;-66
2023/05/26 07:42:49;;;;;;;16.90;10.60;;;17.60;99.90;;;;;;5030769;28;20721;-65
2023/05/26 07:45:15;;;;;;;16.23;9.53;;;17.80;99.90;;;;;;5030811;28;20259;-65
2023/05/26 07:47:41;;;;;;;20.60;10.30;;;17.80;99.90;;;;;;5030559;28;20310;-66
2023/05/26 07:50:07;;;;;;;22.53;10.63;;;18.20;99.90;;;;;;5029923;28;20269;-66
2023/05/26 07:52:32;;;;;;;20.70;10.20;;;18.20;99.90;;;;;;5032575;28;20206;-66
2023/05/26 07:54:58;;;;;;;17.73;9.70;;;18.00;99.90;;;;;;5033778;28;20272;-65
2023/05/26 07:57:24;;;;;;;17.63;10.60;;;17.90;99.90;;;;;;5034863;28;20183;-66
2023/05/26 07:59:50;;;;;;;24.97;11.80;;;17.80;99.90;;;;;;5033421;28;20208;-66
2023/05/26 08:02:15;;;;;;;19.30;10.87;;;17.90;99.90;;;;;;5034204;28;20187;-66
2023/05/26 08:04:41;;;;;;;20.53;11.37;;;17.60;99.90;;;;;;5033945;28;20620;-66
2023/05/26 08:07:07;;;;;;;19.90;11.47;;;17.20;99.90;;;;;;5034773;28;20167;-65
2023/05/26 08:09:33;;;;;;;16.27;9.20;;;17.10;99.90;;;;;;5034177;28;20265;-65
2023/05/26 08:11:58;;;;;;;20.70;9.63;;;17.50;99.90;;;;;;5034766;28;20290;-66
2023/05/26 08:14:26;;;;;;;27.30;12.30;;;17.80;99.90;;;;;;5034157;28;20172;-66
2023/05/26 08:16:51;;;;;;;20.53;13.13;;;17.90;99.90;;;;;;5034298;28;20736;-66
2023/05/26 08:19:17;;;;;;;19.13;11.73;;;18.20;99.90;;;;;;5034030;28;20275;-66
2023/05/26 08:21:43;;;;;;;26.40;12.90;;;18.70;99.90;;;;;;5034243;28;20175;-65
2023/05/26 08:24:08;;;;;;;22.23;11.57;;;18.80;99.90;;;;;;5034195;28;20289;-65
2023/05/26 08:26:34;;;;;;;23.15;12.23;;;19.30;99.90;;;;;;5034211;28;20172;-66
2023/05/26 08:28:59;;;;;;;20.70;12.20;;;19.80;99.90;;;;;;5034091;28;20195;-65
2023/05/26 08:31:25;;;;;;;22.30;13.52;;;20.00;99.90;;;;;;5033810;28;20175;-66
2023/05/26 08:33:53;;;;;;;25.33;12.73;;;20.40;99.90;;;;;;5033776;28;20207;-66
2023/05/26 08:36:19;;;;;;;24.25;14.02;;;20.30;99.90;;;;;;5034063;28;20167;-65
2023/05/26 08:38:45;;;;;;;20.65;12.73;;;20.10;99.90;;;;;;5033799;28;20548;-66
2023/05/26 08:41:13;;;;;;;22.65;13.65;;;19.90;99.90;;;;;;5033612;28;20573;-66
2023/05/26 08:43:45;;;;;;;23.73;12.98;;;19.80;99.90;;;;;;5034009;28;20179;-66
2023/05/26 08:46:12;;;;;;;20.03;11.40;;;19.60;99.90;;;;;;5033825;28;20199;-66
2023/05/26 08:48:39;;;;;;;19.33;11.80;;;19.80;99.90;;;;;;5033623;28;20180;-66
2023/05/26 08:51:08;;;;;;;17.77;10.88;;;20.10;99.90;;;;;;5033357;28;20239;-65
2023/05/26 08:53:34;;;;;;;17.77;11.43;;;20.50;99.90;;;;;;5033592;28;20203;-66
2023/05/26 08:56:00;;;;;;;25.40;11.40;;;20.70;99.90;;;;;;5033512;28;20182;-66
2023/05/26 08:58:27;;;;;;;20.85;10.48;;;20.60;99.90;;;;;;5033566;28;20290;-66
2023/05/26 09:00:54;;;;;;;21.63;10.57;;;20.50;99.90;;;;;;5033042;28;20198;-65
2023/05/26 09:03:20;;;;;;;23.38;10.13;;;20.40;99.90;;;;;;5032630;28;20203;-66
2023/05/26 09:05:46;;;;;;;17.52;10.88;;;20.50;99.90;;;;;;5033312;28;20226;-65
2023/05/26 09:08:12;;;;;;;16.95;10.45;;;20.70;99.90;;;;;;5033425;28;20172;-65
2023/05/26 09:10:38;;;;;;;15.38;9.82;;;20.60;99.90;;;;;;5032878;28;20192;-66
2023/05/26 09:13:09;;;;;;;18.08;9.68;;;20.90;99.90;;;;;;5033208;28;20203;-66
2023/05/26 09:15:36;;;;;;;22.33;9.68;;;20.80;99.90;;;;;;5033213;28;20246;-66
2023/05/26 09:18:09;;;;;;;21.95;10.82;;;20.70;99.90;;;;;;5033030;28;20234;-66
2023/05/26 09:20:46;;;;;;;18.20;10.75;;;20.80;99.90;;;;;;5033013;28;20558;-66
2023/05/26 09:23:15;;;;;;;16.35;7.97;;;21.10;99.90;;;;;;5033129;28;20586;-66
2023/05/26 09:25:41;;;;;;;16.65;7.22;;;21.50;99.90;;;;;;5033024;28;20703;-66
2023/05/26 09:28:09;;;;;;;13.88;7.95;;;22.30;99.90;;;;;;5033042;28;20514;-66
2023/05/26 09:30:45;;;;;;;12.00;8.05;;;22.50;99.90;;;;;;5032639;28;20195;-66
2023/05/26 09:33:18;;;;;;;16.25;8.00;;;22.50;99.90;;;;;;5033023;28;20203;-66
2023/05/26 09:35:46;;;;;;;21.60;9.68;;;22.30;99.90;;;;;;5032746;28;20309;-66
2023/05/26 09:38:14;;;;;;;15.70;8.02;;;22.30;99.90;;;;;;5032871;28;20225;-66
2023/05/26 09:40:44;;;;;;;13.38;7.47;;;22.40;99.90;;;;;;5032423;28;20207;-66
2023/05/26 09:43:10;;;;;;;15.88;7.85;;;22.50;99.90;;;;;;5032791;28;20186;-66
2023/05/26 09:45:38;;;;;;;13.40;7.90;;;23.00;99.90;;;;;;5032677;28;20176;-66
2023/05/26 09:48:05;;;;;;;13.90;7.40;;;22.90;99.90;;;;;;5032582;28;20178;-66
2023/05/26 09:50:32;;;;;;;16.58;9.25;;;23.20;99.90;;;;;;5032254;28;20278;-66
2023/05/26 09:53:00;;;;;;;15.45;8.48;;;23.30;99.90;;;;;;5032434;28;20302;-66
2023/05/26 09:55:26;;;;;;;17.48;8.20;;;23.10;99.90;;;;;;5032712;28;20242;-66
2023/05/26 09:57:53;;;;;;;13.93;7.10;;;22.90;99.90;;;;;;5032430;28;20255;-66
2023/05/26 10:00:20;;;;;;;15.25;7.35;;;22.90;99.90;;;;;;5032351;28;20198;-66
2023/05/26 10:02:47;;;;;;;15.93;6.70;;;22.90;99.90;;;;;;5032260;28;20188;-66
2023/05/26 10:05:14;;;;;;;16.08;7.45;;;22.90;99.90;;;;;;5032352;28;20175;-66
2023/05/26 10:07:41;;;;;;;12.98;7.35;;;23.10;99.90;;;;;;5031006;28;20189;-66
2023/05/26 10:10:11;;;;;;;13.07;7.97;;;22.90;99.90;;;;;;5031665;28;20245;-66
2023/05/26 10:12:36;;;;;;;13.52;7.32;;;22.90;99.90;;;;;;5032203;28;20187;-65
2023/05/26 10:15:03;;;;;;;13.65;6.97;;;23.10;99.90;;;;;;5031240;28;20182;-66
2023/05/26 10:17:30;;;;;;;12.88;7.60;;;23.10;99.90;;;;;;5032043;28;20167;-66
2023/05/26 10:19:57;;;;;;;16.27;7.07;;;23.10;99.90;;;;;;5031799;28;20187;-66
2023/05/26 10:23:00;;;;;;;16.58;7.88;;;23.20;99.90;;;;;;5032158;28;20210;-66
2023/05/26 10:25:35;;;;;;;15.18;7.93;;;23.30;99.90;;;;;;5032156;28;20181;-66
2023/05/26 10:28:11;;;;;;;13.57;7.70;;;23.40;99.90;;;;;;5032194;28;20573;-66
2023/05/26 10:30:39;;;;;;;18.10;8.30;;;23.50;99.90;;;;;;5031679;28;20461;-65
2023/05/26 10:33:14;;;;;;;12.65;7.30;;;23.70;99.90;;;;;;5031661;28;20294;-65
2023/05/26 10:35:54;;;;;;;15.02;6.68;;;24.00;99.90;;;;;;5031757;28;20179;-66
2023/05/26 10:38:25;;;;;;;17.13;7.60;;;24.10;99.90;;;;;;5031385;28;20182;-66
2023/05/26 10:40:51;;;;;;;14.95;6.57;;;24.20;99.90;;;;;;5031271;28;20611;-66
2023/05/26 10:43:24;;;;;;;13.77;7.47;;;24.20;99.90;;;;;;5022573;28;20175;-66
2023/05/26 10:45:59;;;;;;;18.85;7.72;;;24.20;99.90;;;;;;5031277;28;20408;-65
2023/05/26 10:48:35;;;;;;;21.83;12.07;;;24.30;99.90;;;;;;5031763;28;20167;-66
2023/05/26 10:51:08;;;;;;;17.63;7.30;;;24.20;99.90;;;;;;5031132;28;20657;-66
2023/05/26 10:53:39;;;;;;;18.02;8.30;;;24.50;99.90;;;;;;5031296;28;20294;-66
2023/05/26 10:56:08;;;;;;;17.95;7.80;;;24.70;99.90;;;;;;5031902;28;20255;-66
2023/05/26 10:58:36;;;;;;;19.88;7.75;;;24.50;99.90;;;;;;5031232;28;20184;-66
2023/05/26 11:01:03;;;;;;;15.52;7.20;;;24.40;99.90;;;;;;5031082;28;20184;-66
2023/05/26 11:03:33;;;;;;;15.25;7.53;;;23.80;99.90;;;;;;5031214;28;20262;-66
2023/05/26 11:05:59;;;;;;;12.95;8.15;;;23.70;99.90;;;;;;5031083;28;20204;-66
2023/05/26 11:08:25;;;;;;;12.75;7.18;;;23.70;99.90;;;;;;5031399;28;20187;-66
2023/05/26 11:11:11;;;;;;;11.68;6.22;;;23.80;99.90;;;;;;5029420;28;20707;-66
2023/05/26 11:13:47;;;;;;;13.35;6.38;;;24.20;99.90;;;;;;5031397;28;20210;-66
2023/05/26 11:16:25;;;;;;;14.23;7.55;;;24.40;99.90;;;;;;5031195;28;20179;-66
2023/05/26 11:18:55;;;;;;;15.63;7.22;;;24.80;99.90;;;;;;5031191;28;20201;-66
2023/05/26 11:21:28;;;;;;;15.40;7.93;;;25.10;99.90;;;;;;5030845;28;20194;-66
2023/05/26 11:23:59;;;;;;;15.52;7.70;;;25.40;99.90;;;;;;5029581;28;20176;-66
2023/05/26 11:26:27;;;;;;;13.95;7.13;;;25.30;99.90;;;;;;5029852;28;20215;-65
2023/05/26 11:28:53;;;;;;;13.68;7.38;;;25.30;99.90;;;;;;5034831;28;20172;-66
2023/05/26 11:31:21;;;;;;;19.50;7.18;;;25.10;99.90;;;;;;5034522;28;20192;-66
2023/05/26 11:33:48;;;;;;;20.58;7.78;;;25.20;99.90;;;;;;5034915;28;20294;-66
2023/05/26 11:36:16;;;;;;;17.48;7.47;;;25.40;99.90;;;;;;5034712;28;20172;-66
2023/05/26 11:38:45;;;;;;;15.70;8.25;;;25.50;99.90;;;;;;5034653;28;20164;-66
2023/05/26 11:41:12;;;;;;;12.68;6.55;;;25.40;99.90;;;;;;5034475;28;20191;-66
2023/05/26 11:43:39;;;;;;;19.38;8.98;;;25.60;99.90;;;;;;5034589;28;20201;-66
2023/05/26 11:46:09;;;;;;;19.77;7.90;;;25.80;99.90;;;;;;5034689;28;20178;-66
2023/05/26 11:48:39;;;;;;;13.27;7.35;;;25.80;99.90;;;;;;5034671;28;20677;-66
2023/05/26 11:51:22;;;;;;;14.73;8.38;;;25.80;99.90;;;;;;5034415;28;20199;-66
2023/05/26 11:53:57;;;;;;;18.15;8.38;;;26.10;99.90;;;;;;5034364;28;20195;-65
2023/05/26 11:56:32;;;;;;;13.25;6.90;;;26.10;99.90;;;;;;5034753;28;20175;-66
2023/05/26 11:58:57;;;;;;;12.27;7.35;;;25.90;99.90;;;;;;5034117;28;20222;-66
2023/05/26 12:01:27;;;;;;;13.13;8.48;;;25.90;99.90;;;;;;5034621;28;20763;-66
2023/05/26 12:03:55;;;;;;;13.77;7.57;;;25.70;99.90;;;;;;5033836;28;20179;-66
2023/05/26 12:06:23;;;;;;;16.10;8.00;;;25.70;99.90;;;;;;5034445;28;20266;-66
2023/05/26 12:08:51;;;;;;;16.05;8.50;;;25.90;99.90;;;;;;5034343;28;20187;-66
2023/05/26 12:11:22;;;;;;;13.80;8.90;;;25.90;99.90;;;;;;5033952;28;20218;-66
2023/05/26 12:13:54;;;;;;;13.68;7.20;;;25.80;99.90;;;;;;5033700;28;20206;-66
2023/05/26 12:16:35;;;;;;;11.63;7.70;;;26.10;99.90;;;;;;5034113;28;20183;-66
2023/05/26 12:19:10;;;;;;;19.13;7.35;;;26.00;99.90;;;;;;5034118;28;20521;-66
2023/05/26 12:21:47;;;;;;;13.43;7.13;;;25.90;99.90;;;;;;5034124;28;20363;-66
2023/05/26 12:24:27;;;;;;;19.83;7.72;;;26.00;99.90;;;;;;5034267;28;20187;-66
2023/05/26 12:26:53;;;;;;;14.82;8.40;;;25.70;99.90;;;;;;5032586;28;20183;-66
2023/05/26 12:29:19;;;;;;;18.85;8.60;;;25.20;99.90;;;;;;5033760;28;20218;-67
2023/05/26 12:31:48;;;;;;;15.20;6.82;;;25.20;99.90;;;;;;5033632;28;20205;-67
2023/05/26 12:34:23;;;;;;;18.08;6.90;;;25.50;99.90;;;;;;5033767;28;20179;-66
2023/05/26 12:36:50;;;;;;;16.50;7.82;;;25.40;99.90;;;;;;5033890;28;20253;-66